sensor_id;sensor_type;location;lat;lon;timestamp;P1;durP1;ratioP1;P2;durP2;ratioP2
37453;SDS011;23315;52.078;4.756;2023-10-19T00:02:04;17.65;;;12.07;;
37453;SDS011;23315;52.078;4.756;2023-10-19T00:04:31;15.88;;;11.55;;
37453;SDS011;23315;52.078;4.756;2023-10-19T00:06:59;13.80;;;11.20;;
37453;SDS011;23315;52.078;4.756;2023-10-19T00:09:25;16.63;;;11.95;;
37453;SDS011;23315;52.078;4.756;2023-10-19T00:11:55;16.40;;;11.63;;
37453;SDS011;23315;52.078;4.756;2023-10-19T00:14:20;15.18;;;11.88;;
37453;SDS011;23315;52.078;4.756;2023-10-19T00:16:46;16.95;;;13.38;;
37453;SDS011;23315;52.078;4.756;2023-10-19T00:19:19;15.68;;;12.63;;
37453;SDS011;23315;52.078;4.756;2023-10-19T00:21:47;14.90;;;11.70;;
37453;SDS011;23315;52.078;4.756;2023-10-19T00:24:19;15.63;;;12.23;;
37453;SDS011;23315;52.078;4.756;2023-10-19T00:26:47;13.77;;;11.82;;
37453;SDS011;23315;52.078;4.756;2023-10-19T00:29:13;15.77;;;11.68;;
37453;SDS011;23315;52.078;4.756;2023-10-19T00:31:58;17.38;;;12.48;;
37453;SDS011;23315;52.078;4.756;2023-10-19T00:34:25;16.33;;;12.80;;
37453;SDS011;23315;52.078;4.756;2023-10-19T00:36:54;17.40;;;12.38;;
37453;SDS011;23315;52.078;4.756;2023-10-19T00:39:21;15.80;;;11.93;;
37453;SDS011;23315;52.078;4.756;2023-10-19T00:41:47;15.07;;;11.77;;
37453;SDS011;23315;52.078;4.756;2023-10-19T00:44:13;16.13;;;12.25;;
37453;SDS011;23315;52.078;4.756;2023-10-19T00:46:48;16.13;;;11.50;;
37453;SDS011;23315;52.078;4.756;2023-10-19T00:49:28;14.20;;;11.73;;
37453;SDS011;23315;52.078;4.756;2023-10-19T00:51:55;16.17;;;12.90;;
37453;SDS011;23315;52.078;4.756;2023-10-19T00:54:27;17.25;;;13.70;;
37453;SDS011;23315;52.078;4.756;2023-10-19T00:57:17;14.52;;;12.20;;
37453;SDS011;23315;52.078;4.756;2023-10-19T00:59:57;15.27;;;12.35;;
37453;SDS011;23315;52.078;4.756;2023-10-19T01:02:36;16.42;;;13.27;;
37453;SDS011;23315;52.078;4.756;2023-10-19T01:05:08;17.05;;;13.68;;
37453;SDS011;23315;52.078;4.756;2023-10-19T01:07:38;17.77;;;13.23;;
37453;SDS011;23315;52.078;4.756;2023-10-19T01:10:04;19.40;;;15.93;;
37453;SDS011;23315;52.078;4.756;2023-10-19T01:12:46;17.42;;;14.57;;
37453;SDS011;23315;52.078;4.756;2023-10-19T01:15:15;19.50;;;15.48;;
37453;SDS011;23315;52.078;4.756;2023-10-19T01:17:43;18.88;;;14.65;;
37453;SDS011;23315;52.078;4.756;2023-10-19T01:20:10;17.23;;;14.07;;
37453;SDS011;23315;52.078;4.756;2023-10-19T01:22:56;16.73;;;14.02;;
37453;SDS011;23315;52.078;4.756;2023-10-19T01:25:42;19.73;;;15.90;;
37453;SDS011;23315;52.078;4.756;2023-10-19T01:28:23;20.08;;;16.60;;
37453;SDS011;23315;52.078;4.756;2023-10-19T01:31:07;21.48;;;16.98;;
37453;SDS011;23315;52.078;4.756;2023-10-19T01:33:39;19.08;;;15.05;;
37453;SDS011;23315;52.078;4.756;2023-10-19T01:36:05;19.45;;;15.95;;
37453;SDS011;23315;52.078;4.756;2023-10-19T01:38:36;18.63;;;15.85;;
37453;SDS011;23315;52.078;4.756;2023-10-19T01:41:03;19.58;;;15.88;;
37453;SDS011;23315;52.078;4.756;2023-10-19T01:43:48;18.02;;;14.63;;
37453;SDS011;23315;52.078;4.756;2023-10-19T01:46:16;20.75;;;15.25;;
37453;SDS011;23315;52.078;4.756;2023-10-19T01:48:50;16.50;;;14.07;;
37453;SDS011;23315;52.078;4.756;2023-10-19T01:51:20;17.85;;;15.18;;
37453;SDS011;23315;52.078;4.756;2023-10-19T01:53:50;15.63;;;13.20;;
37453;SDS011;23315;52.078;4.756;2023-10-19T01:56:16;15.88;;;13.88;;
37453;SDS011;23315;52.078;4.756;2023-10-19T01:58:42;17.33;;;15.10;;
37453;SDS011;23315;52.078;4.756;2023-10-19T02:01:11;17.13;;;15.23;;
37453;SDS011;23315;52.078;4.756;2023-10-19T02:03:38;16.92;;;14.88;;
37453;SDS011;23315;52.078;4.756;2023-10-19T02:06:09;17.45;;;14.40;;
37453;SDS011;23315;52.078;4.756;2023-10-19T02:09:24;16.27;;;14.48;;
37453;SDS011;23315;52.078;4.756;2023-10-19T02:11:40;16.77;;;14.43;;
37453;SDS011;23315;52.078;4.756;2023-10-19T02:14:10;19.25;;;16.55;;
37453;SDS011;23315;52.078;4.756;2023-10-19T02:16:45;18.40;;;15.13;;
37453;SDS011;23315;52.078;4.756;2023-10-19T02:19:12;17.73;;;15.45;;
37453;SDS011;23315;52.078;4.756;2023-10-19T02:21:38;16.85;;;15.05;;
37453;SDS011;23315;52.078;4.756;2023-10-19T02:24:07;17.60;;;15.48;;
37453;SDS011;23315;52.078;4.756;2023-10-19T02:26:34;18.15;;;15.23;;
37453;SDS011;23315;52.078;4.756;2023-10-19T02:29:00;20.05;;;16.73;;
37453;SDS011;23315;52.078;4.756;2023-10-19T02:31:32;17.48;;;15.25;;
37453;SDS011;23315;52.078;4.756;2023-10-19T02:33:57;17.00;;;15.20;;
37453;SDS011;23315;52.078;4.756;2023-10-19T02:36:29;18.73;;;16.45;;
37453;SDS011;23315;52.078;4.756;2023-10-19T02:38:59;21.40;;;18.17;;
37453;SDS011;23315;52.078;4.756;2023-10-19T02:41:32;17.83;;;15.90;;
37453;SDS011;23315;52.078;4.756;2023-10-19T02:44:10;19.55;;;17.45;;
37453;SDS011;23315;52.078;4.756;2023-10-19T02:46:45;19.85;;;17.17;;
37453;SDS011;23315;52.078;4.756;2023-10-19T02:49:11;19.80;;;17.65;;
37453;SDS011;23315;52.078;4.756;2023-10-19T02:51:39;24.17;;;20.10;;
37453;SDS011;23315;52.078;4.756;2023-10-19T02:54:05;20.27;;;17.92;;
37453;SDS011;23315;52.078;4.756;2023-10-19T02:56:32;17.88;;;15.52;;
37453;SDS011;23315;52.078;4.756;2023-10-19T02:59:01;19.58;;;16.48;;
37453;SDS011;23315;52.078;4.756;2023-10-19T03:01:29;18.33;;;16.23;;
37453;SDS011;23315;52.078;4.756;2023-10-19T03:03:56;18.40;;;15.75;;
37453;SDS011;23315;52.078;4.756;2023-10-19T03:06:25;24.10;;;18.45;;
37453;SDS011;23315;52.078;4.756;2023-10-19T03:08:56;20.77;;;17.73;;
37453;SDS011;23315;52.078;4.756;2023-10-19T03:11:29;22.50;;;19.42;;
37453;SDS011;23315;52.078;4.756;2023-10-19T03:13:54;20.08;;;17.83;;
37453;SDS011;23315;52.078;4.756;2023-10-19T03:16:22;20.38;;;17.58;;
37453;SDS011;23315;52.078;4.756;2023-10-19T03:18:48;20.85;;;18.05;;
37453;SDS011;23315;52.078;4.756;2023-10-19T03:21:16;23.38;;;20.30;;
37453;SDS011;23315;52.078;4.756;2023-10-19T03:23:41;25.40;;;20.38;;
37453;SDS011;23315;52.078;4.756;2023-10-19T03:26:07;22.40;;;19.38;;
37453;SDS011;23315;52.078;4.756;2023-10-19T03:28:49;23.25;;;19.50;;
37453;SDS011;23315;52.078;4.756;2023-10-19T03:31:20;26.08;;;21.85;;
37453;SDS011;23315;52.078;4.756;2023-10-19T03:33:48;27.23;;;22.95;;
37453;SDS011;23315;52.078;4.756;2023-10-19T03:36:18;26.58;;;22.00;;
37453;SDS011;23315;52.078;4.756;2023-10-19T03:38:44;25.48;;;20.85;;
37453;SDS011;23315;52.078;4.756;2023-10-19T03:41:09;27.15;;;22.38;;
37453;SDS011;23315;52.078;4.756;2023-10-19T03:43:35;30.80;;;25.08;;
37453;SDS011;23315;52.078;4.756;2023-10-19T03:46:05;29.13;;;23.58;;
37453;SDS011;23315;52.078;4.756;2023-10-19T03:48:39;30.33;;;23.83;;
37453;SDS011;23315;52.078;4.756;2023-10-19T03:51:05;28.90;;;23.77;;
37453;SDS011;23315;52.078;4.756;2023-10-19T03:53:30;35.83;;;27.70;;
37453;SDS011;23315;52.078;4.756;2023-10-19T03:55:57;31.27;;;25.92;;
37453;SDS011;23315;52.078;4.756;2023-10-19T03:58:23;33.35;;;26.17;;
37453;SDS011;23315;52.078;4.756;2023-10-19T04:00:48;31.30;;;25.00;;
37453;SDS011;23315;52.078;4.756;2023-10-19T04:03:14;37.00;;;25.73;;
37453;SDS011;23315;52.078;4.756;2023-10-19T04:05:42;30.83;;;24.45;;
37453;SDS011;23315;52.078;4.756;2023-10-19T04:08:11;27.98;;;23.75;;
37453;SDS011;23315;52.078;4.756;2023-10-19T04:10:40;31.80;;;25.33;;
37453;SDS011;23315;52.078;4.756;2023-10-19T04:13:10;25.92;;;22.02;;
37453;SDS011;23315;52.078;4.756;2023-10-19T04:15:36;26.20;;;21.58;;
37453;SDS011;23315;52.078;4.756;2023-10-19T04:18:02;34.35;;;24.85;;
37453;SDS011;23315;52.078;4.756;2023-10-19T04:20:34;26.75;;;21.05;;
37453;SDS011;23315;52.078;4.756;2023-10-19T04:23:18;27.75;;;22.05;;
37453;SDS011;23315;52.078;4.756;2023-10-19T04:25:45;26.42;;;20.73;;
37453;SDS011;23315;52.078;4.756;2023-10-19T04:28:11;26.48;;;21.05;;
37453;SDS011;23315;52.078;4.756;2023-10-19T04:30:38;30.30;;;21.52;;
37453;SDS011;23315;52.078;4.756;2023-10-19T04:33:04;23.48;;;18.83;;
37453;SDS011;23315;52.078;4.756;2023-10-19T04:35:34;26.33;;;20.50;;
37453;SDS011;23315;52.078;4.756;2023-10-19T04:38:00;27.80;;;18.80;;
37453;SDS011;23315;52.078;4.756;2023-10-19T04:40:26;23.77;;;17.52;;
37453;SDS011;23315;52.078;4.756;2023-10-19T04:42:51;23.92;;;18.20;;
37453;SDS011;23315;52.078;4.756;2023-10-19T04:45:17;24.05;;;16.92;;
37453;SDS011;23315;52.078;4.756;2023-10-19T04:47:43;18.73;;;14.65;;
37453;SDS011;23315;52.078;4.756;2023-10-19T04:50:08;19.00;;;14.15;;
37453;SDS011;23315;52.078;4.756;2023-10-19T04:52:37;20.45;;;14.32;;
37453;SDS011;23315;52.078;4.756;2023-10-19T04:55:03;20.88;;;12.70;;
37453;SDS011;23315;52.078;4.756;2023-10-19T04:57:29;15.80;;;12.55;;
37453;SDS011;23315;52.078;4.756;2023-10-19T04:59:55;14.93;;;11.38;;
37453;SDS011;23315;52.078;4.756;2023-10-19T05:02:21;17.30;;;10.77;;
37453;SDS011;23315;52.078;4.756;2023-10-19T05:04:46;14.27;;;10.35;;
37453;SDS011;23315;52.078;4.756;2023-10-19T05:07:12;19.88;;;10.68;;
37453;SDS011;23315;52.078;4.756;2023-10-19T05:09:39;16.63;;;10.77;;
37453;SDS011;23315;52.078;4.756;2023-10-19T05:12:06;13.65;;;10.00;;
37453;SDS011;23315;52.078;4.756;2023-10-19T05:14:38;12.48;;;8.68;;
37453;SDS011;23315;52.078;4.756;2023-10-19T05:17:07;11.60;;;8.23;;
37453;SDS011;23315;52.078;4.756;2023-10-19T05:19:34;12.82;;;7.82;;
37453;SDS011;23315;52.078;4.756;2023-10-19T05:22:01;10.48;;;7.95;;
37453;SDS011;23315;52.078;4.756;2023-10-19T05:24:28;12.27;;;7.50;;
37453;SDS011;23315;52.078;4.756;2023-10-19T05:26:54;14.30;;;7.72;;
37453;SDS011;23315;52.078;4.756;2023-10-19T05:29:20;8.93;;;6.45;;
37453;SDS011;23315;52.078;4.756;2023-10-19T05:31:46;9.00;;;5.50;;
37453;SDS011;23315;52.078;4.756;2023-10-19T05:34:11;11.05;;;5.20;;
37453;SDS011;23315;52.078;4.756;2023-10-19T05:36:37;12.07;;;5.80;;
37453;SDS011;23315;52.078;4.756;2023-10-19T05:39:04;11.57;;;4.65;;
37453;SDS011;23315;52.078;4.756;2023-10-19T05:41:32;10.95;;;4.72;;
37453;SDS011;23315;52.078;4.756;2023-10-19T05:43:59;10.48;;;4.10;;
37453;SDS011;23315;52.078;4.756;2023-10-19T05:46:24;8.73;;;4.90;;
37453;SDS011;23315;52.078;4.756;2023-10-19T05:48:50;11.45;;;4.40;;
37453;SDS011;23315;52.078;4.756;2023-10-19T05:51:16;7.72;;;3.78;;
37453;SDS011;23315;52.078;4.756;2023-10-19T05:53:42;6.55;;;3.40;;
37453;SDS011;23315;52.078;4.756;2023-10-19T05:56:09;6.30;;;3.30;;
37453;SDS011;23315;52.078;4.756;2023-10-19T05:58:35;7.55;;;3.30;;
37453;SDS011;23315;52.078;4.756;2023-10-19T06:01:01;8.65;;;3.30;;
37453;SDS011;23315;52.078;4.756;2023-10-19T06:03:26;8.55;;;3.58;;
37453;SDS011;23315;52.078;4.756;2023-10-19T06:05:51;7.47;;;3.65;;
37453;SDS011;23315;52.078;4.756;2023-10-19T06:08:21;8.63;;;3.63;;
37453;SDS011;23315;52.078;4.756;2023-10-19T06:10:52;8.85;;;3.38;;
37453;SDS011;23315;52.078;4.756;2023-10-19T06:13:17;8.68;;;3.38;;
37453;SDS011;23315;52.078;4.756;2023-10-19T06:15:43;7.28;;;3.60;;
37453;SDS011;23315;52.078;4.756;2023-10-19T06:18:09;9.32;;;3.40;;
37453;SDS011;23315;52.078;4.756;2023-10-19T06:20:35;6.13;;;3.05;;
37453;SDS011;23315;52.078;4.756;2023-10-19T06:23:01;9.73;;;3.08;;
37453;SDS011;23315;52.078;4.756;2023-10-19T06:25:29;6.28;;;2.50;;
37453;SDS011;23315;52.078;4.756;2023-10-19T06:27:55;7.85;;;2.33;;
37453;SDS011;23315;52.078;4.756;2023-10-19T06:30:22;10.00;;;2.85;;
37453;SDS011;23315;52.078;4.756;2023-10-19T06:32:50;7.25;;;2.72;;
37453;SDS011;23315;52.078;4.756;2023-10-19T06:35:16;7.20;;;2.30;;
37453;SDS011;23315;52.078;4.756;2023-10-19T06:37:43;7.32;;;2.67;;
37453;SDS011;23315;52.078;4.756;2023-10-19T06:40:09;5.10;;;2.15;;
37453;SDS011;23315;52.078;4.756;2023-10-19T06:42:36;7.80;;;2.50;;
37453;SDS011;23315;52.078;4.756;2023-10-19T06:45:02;13.65;;;3.25;;
37453;SDS011;23315;52.078;4.756;2023-10-19T06:47:27;8.02;;;2.92;;
37453;SDS011;23315;52.078;4.756;2023-10-19T06:49:53;5.57;;;2.10;;
37453;SDS011;23315;52.078;4.756;2023-10-19T06:52:20;7.28;;;2.38;;
37453;SDS011;23315;52.078;4.756;2023-10-19T06:54:46;9.02;;;2.50;;
37453;SDS011;23315;52.078;4.756;2023-10-19T06:57:11;9.13;;;2.38;;
37453;SDS011;23315;52.078;4.756;2023-10-19T06:59:37;5.70;;;2.40;;
37453;SDS011;23315;52.078;4.756;2023-10-19T07:02:02;4.05;;;2.15;;
37453;SDS011;23315;52.078;4.756;2023-10-19T07:04:28;7.57;;;2.53;;
37453;SDS011;23315;52.078;4.756;2023-10-19T07:06:54;5.45;;;2.00;;
37453;SDS011;23315;52.078;4.756;2023-10-19T07:09:20;7.20;;;2.15;;
37453;SDS011;23315;52.078;4.756;2023-10-19T07:11:46;8.07;;;2.25;;
37453;SDS011;23315;52.078;4.756;2023-10-19T07:14:12;7.43;;;2.42;;
37453;SDS011;23315;52.078;4.756;2023-10-19T07:16:38;5.32;;;1.90;;
37453;SDS011;23315;52.078;4.756;2023-10-19T07:19:05;8.05;;;2.53;;
37453;SDS011;23315;52.078;4.756;2023-10-19T07:21:30;8.20;;;3.03;;
37453;SDS011;23315;52.078;4.756;2023-10-19T07:24:00;6.28;;;2.05;;
37453;SDS011;23315;52.078;4.756;2023-10-19T07:26:30;6.90;;;1.98;;
37453;SDS011;23315;52.078;4.756;2023-10-19T07:28:58;6.18;;;1.92;;
37453;SDS011;23315;52.078;4.756;2023-10-19T07:31:24;6.55;;;2.33;;
37453;SDS011;23315;52.078;4.756;2023-10-19T07:33:50;8.20;;;2.13;;
37453;SDS011;23315;52.078;4.756;2023-10-19T07:36:15;7.32;;;1.95;;
37453;SDS011;23315;52.078;4.756;2023-10-19T07:38:41;8.00;;;2.30;;
37453;SDS011;23315;52.078;4.756;2023-10-19T07:41:11;7.10;;;2.47;;
37453;SDS011;23315;52.078;4.756;2023-10-19T07:43:37;6.88;;;2.47;;
37453;SDS011;23315;52.078;4.756;2023-10-19T07:46:02;12.00;;;2.80;;
37453;SDS011;23315;52.078;4.756;2023-10-19T07:48:28;7.18;;;2.53;;
37453;SDS011;23315;52.078;4.756;2023-10-19T07:50:54;10.32;;;2.22;;
37453;SDS011;23315;52.078;4.756;2023-10-19T07:53:19;8.20;;;2.42;;
37453;SDS011;23315;52.078;4.756;2023-10-19T07:55:44;6.72;;;2.25;;
37453;SDS011;23315;52.078;4.756;2023-10-19T07:58:10;8.68;;;2.90;;
37453;SDS011;23315;52.078;4.756;2023-10-19T08:00:36;7.55;;;2.38;;
37453;SDS011;23315;52.078;4.756;2023-10-19T08:03:02;7.60;;;2.55;;
37453;SDS011;23315;52.078;4.756;2023-10-19T08:05:28;16.60;;;3.75;;
37453;SDS011;23315;52.078;4.756;2023-10-19T08:07:53;8.40;;;2.65;;
37453;SDS011;23315;52.078;4.756;2023-10-19T08:10:19;4.95;;;2.00;;
37453;SDS011;23315;52.078;4.756;2023-10-19T08:12:47;11.20;;;3.40;;
37453;SDS011;23315;52.078;4.756;2023-10-19T08:15:14;8.60;;;2.17;;
37453;SDS011;23315;52.078;4.756;2023-10-19T08:17:41;6.28;;;2.20;;
37453;SDS011;23315;52.078;4.756;2023-10-19T08:20:08;5.82;;;2.17;;
37453;SDS011;23315;52.078;4.756;2023-10-19T08:22:36;8.77;;;2.10;;
37453;SDS011;23315;52.078;4.756;2023-10-19T08:25:02;10.90;;;2.63;;
37453;SDS011;23315;52.078;4.756;2023-10-19T08:27:29;7.60;;;2.03;;
37453;SDS011;23315;52.078;4.756;2023-10-19T08:29:55;8.15;;;2.65;;
37453;SDS011;23315;52.078;4.756;2023-10-19T08:32:20;5.20;;;1.80;;
37453;SDS011;23315;52.078;4.756;2023-10-19T08:34:46;5.55;;;2.25;;
37453;SDS011;23315;52.078;4.756;2023-10-19T08:37:11;6.38;;;2.25;;
37453;SDS011;23315;52.078;4.756;2023-10-19T08:39:38;9.18;;;2.30;;
37453;SDS011;23315;52.078;4.756;2023-10-19T08:42:03;7.25;;;2.75;;
37453;SDS011;23315;52.078;4.756;2023-10-19T08:44:29;7.63;;;2.15;;
37453;SDS011;23315;52.078;4.756;2023-10-19T08:46:55;8.57;;;2.30;;
37453;SDS011;23315;52.078;4.756;2023-10-19T08:49:22;6.90;;;2.28;;
37453;SDS011;23315;52.078;4.756;2023-10-19T08:51:48;4.93;;;1.77;;
37453;SDS011;23315;52.078;4.756;2023-10-19T08:54:14;8.18;;;2.65;;
37453;SDS011;23315;52.078;4.756;2023-10-19T08:56:40;7.35;;;2.28;;
37453;SDS011;23315;52.078;4.756;2023-10-19T08:59:06;8.75;;;2.63;;
37453;SDS011;23315;52.078;4.756;2023-10-19T09:01:32;7.53;;;2.65;;
37453;SDS011;23315;52.078;4.756;2023-10-19T09:04:00;6.78;;;2.30;;
37453;SDS011;23315;52.078;4.756;2023-10-19T09:06:26;15.00;;;2.70;;
37453;SDS011;23315;52.078;4.756;2023-10-19T09:08:54;4.40;;;1.90;;
37453;SDS011;23315;52.078;4.756;2023-10-19T09:11:19;8.25;;;3.08;;
37453;SDS011;23315;52.078;4.756;2023-10-19T09:13:49;8.13;;;2.97;;
37453;SDS011;23315;52.078;4.756;2023-10-19T09:16:17;7.60;;;3.08;;
37453;SDS011;23315;52.078;4.756;2023-10-19T09:18:45;6.68;;;2.78;;
37453;SDS011;23315;52.078;4.756;2023-10-19T09:21:11;7.43;;;2.55;;
37453;SDS011;23315;52.078;4.756;2023-10-19T09:23:49;7.90;;;3.40;;
37453;SDS011;23315;52.078;4.756;2023-10-19T09:26:23;8.75;;;4.25;;
37453;SDS011;23315;52.078;4.756;2023-10-19T09:28:50;8.38;;;3.72;;
37453;SDS011;23315;52.078;4.756;2023-10-19T09:31:16;7.57;;;3.33;;
37453;SDS011;23315;52.078;4.756;2023-10-19T09:33:44;9.77;;;3.70;;
37453;SDS011;23315;52.078;4.756;2023-10-19T09:36:10;9.32;;;3.90;;
37453;SDS011;23315;52.078;4.756;2023-10-19T09:38:48;6.85;;;3.00;;
37453;SDS011;23315;52.078;4.756;2023-10-19T09:41:19;9.85;;;3.22;;
37453;SDS011;23315;52.078;4.756;2023-10-19T09:43:48;9.57;;;3.38;;
37453;SDS011;23315;52.078;4.756;2023-10-19T09:46:27;9.10;;;3.13;;
37453;SDS011;23315;52.078;4.756;2023-10-19T09:48:56;8.27;;;3.28;;
37453;SDS011;23315;52.078;4.756;2023-10-19T09:51:22;6.07;;;3.47;;
37453;SDS011;23315;52.078;4.756;2023-10-19T09:53:57;10.52;;;3.40;;
37453;SDS011;23315;52.078;4.756;2023-10-19T09:56:28;10.05;;;3.53;;
37453;SDS011;23315;52.078;4.756;2023-10-19T09:58:57;11.55;;;3.22;;
37453;SDS011;23315;52.078;4.756;2023-10-19T10:01:28;11.98;;;4.60;;
37453;SDS011;23315;52.078;4.756;2023-10-19T10:04:40;10.38;;;3.33;;
37453;SDS011;23315;52.078;4.756;2023-10-19T10:07:07;12.10;;;5.65;;
37453;SDS011;23315;52.078;4.756;2023-10-19T10:09:35;10.48;;;3.95;;
37453;SDS011;23315;52.078;4.756;2023-10-19T10:12:20;10.05;;;3.10;;
37453;SDS011;23315;52.078;4.756;2023-10-19T10:14:54;11.07;;;4.13;;
37453;SDS011;23315;52.078;4.756;2023-10-19T10:17:23;11.50;;;3.63;;
37453;SDS011;23315;52.078;4.756;2023-10-19T10:19:52;12.73;;;4.13;;
37453;SDS011;23315;52.078;4.756;2023-10-19T10:22:19;7.68;;;3.83;;
37453;SDS011;23315;52.078;4.756;2023-10-19T10:24:46;15.90;;;3.65;;
37453;SDS011;23315;52.078;4.756;2023-10-19T10:27:13;8.70;;;3.45;;
37453;SDS011;23315;52.078;4.756;2023-10-19T10:29:58;8.93;;;3.13;;
37453;SDS011;23315;52.078;4.756;2023-10-19T10:35:58;8.10;;;3.40;;
37453;SDS011;23315;52.078;4.756;2023-10-19T10:38:05;7.32;;;2.60;;
37453;SDS011;23315;52.078;4.756;2023-10-19T10:40:32;13.73;;;3.10;;
37453;SDS011;23315;52.078;4.756;2023-10-19T10:43:07;6.80;;;2.97;;
37453;SDS011;23315;52.078;4.756;2023-10-19T10:45:32;12.15;;;4.00;;
37453;SDS011;23315;52.078;4.756;2023-10-19T10:47:58;10.63;;;3.22;;
37453;SDS011;23315;52.078;4.756;2023-10-19T10:50:26;15.40;;;3.95;;
37453;SDS011;23315;52.078;4.756;2023-10-19T10:52:53;14.00;;;5.45;;
37453;SDS011;23315;52.078;4.756;2023-10-19T10:55:22;9.85;;;3.70;;
37453;SDS011;23315;52.078;4.756;2023-10-19T10:57:49;13.50;;;4.15;;
37453;SDS011;23315;52.078;4.756;2023-10-19T11:00:14;10.50;;;3.40;;
37453;SDS011;23315;52.078;4.756;2023-10-19T11:02:47;13.65;;;3.28;;
37453;SDS011;23315;52.078;4.756;2023-10-19T11:05:24;12.73;;;3.65;;
37453;SDS011;23315;52.078;4.756;2023-10-19T11:10:28;7.57;;;2.88;;
37453;SDS011;23315;52.078;4.756;2023-10-19T11:13:03;11.10;;;4.22;;
37453;SDS011;23315;52.078;4.756;2023-10-19T11:15:30;15.18;;;3.85;;
37453;SDS011;23315;52.078;4.756;2023-10-19T11:17:55;9.48;;;3.33;;
37453;SDS011;23315;52.078;4.756;2023-10-19T11:20:21;12.50;;;4.28;;
37453;SDS011;23315;52.078;4.756;2023-10-19T11:22:49;16.75;;;6.47;;
37453;SDS011;23315;52.078;4.756;2023-10-19T11:27:44;9.27;;;4.30;;
37453;SDS011;23315;52.078;4.756;2023-10-19T11:30:09;9.05;;;3.80;;
37453;SDS011;23315;52.078;4.756;2023-10-19T11:32:37;11.32;;;4.13;;
37453;SDS011;23315;52.078;4.756;2023-10-19T11:35:03;13.05;;;4.70;;
37453;SDS011;23315;52.078;4.756;2023-10-19T11:37:29;13.50;;;4.30;;
37453;SDS011;23315;52.078;4.756;2023-10-19T11:39:54;13.68;;;3.75;;
37453;SDS011;23315;52.078;4.756;2023-10-19T11:42:19;9.30;;;4.13;;
37453;SDS011;23315;52.078;4.756;2023-10-19T11:44:45;11.02;;;4.38;;
37453;SDS011;23315;52.078;4.756;2023-10-19T11:47:11;10.85;;;3.97;;
37453;SDS011;23315;52.078;4.756;2023-10-19T11:49:38;16.40;;;4.40;;
37453;SDS011;23315;52.078;4.756;2023-10-19T11:52:06;11.25;;;4.65;;
37453;SDS011;23315;52.078;4.756;2023-10-19T11:54:34;13.73;;;4.90;;
37453;SDS011;23315;52.078;4.756;2023-10-19T11:57:00;11.07;;;4.53;;
37453;SDS011;23315;52.078;4.756;2023-10-19T11:59:27;14.07;;;5.13;;
37453;SDS011;23315;52.078;4.756;2023-10-19T12:01:52;6.60;;;3.65;;
37453;SDS011;23315;52.078;4.756;2023-10-19T12:04:17;13.98;;;5.53;;
37453;SDS011;23315;52.078;4.756;2023-10-19T12:06:43;12.63;;;7.13;;
37453;SDS011;23315;52.078;4.756;2023-10-19T12:09:11;10.10;;;3.85;;
37453;SDS011;23315;52.078;4.756;2023-10-19T12:11:40;13.20;;;5.47;;
37453;SDS011;23315;52.078;4.756;2023-10-19T12:14:06;11.07;;;4.35;;
37453;SDS011;23315;52.078;4.756;2023-10-19T12:16:34;12.93;;;3.72;;
37453;SDS011;23315;52.078;4.756;2023-10-19T12:18:59;8.73;;;4.13;;
37453;SDS011;23315;52.078;4.756;2023-10-19T12:21:25;10.43;;;4.03;;
37453;SDS011;23315;52.078;4.756;2023-10-19T12:23:52;10.73;;;3.92;;
37453;SDS011;23315;52.078;4.756;2023-10-19T12:26:20;13.18;;;4.82;;
37453;SDS011;23315;52.078;4.756;2023-10-19T12:28:45;16.08;;;6.72;;
37453;SDS011;23315;52.078;4.756;2023-10-19T12:31:12;9.77;;;4.20;;
37453;SDS011;23315;52.078;4.756;2023-10-19T12:33:38;13.27;;;4.45;;
37453;SDS011;23315;52.078;4.756;2023-10-19T12:36:04;12.90;;;4.93;;
37453;SDS011;23315;52.078;4.756;2023-10-19T12:38:50;12.80;;;4.25;;
37453;SDS011;23315;52.078;4.756;2023-10-19T12:41:16;13.63;;;5.50;;
37453;SDS011;23315;52.078;4.756;2023-10-19T12:43:42;12.68;;;4.75;;
37453;SDS011;23315;52.078;4.756;2023-10-19T12:46:08;16.30;;;5.43;;
37453;SDS011;23315;52.078;4.756;2023-10-19T12:48:34;13.70;;;5.75;;
37453;SDS011;23315;52.078;4.756;2023-10-19T12:51:00;9.75;;;3.83;;
37453;SDS011;23315;52.078;4.756;2023-10-19T12:53:29;17.45;;;4.47;;
37453;SDS011;23315;52.078;4.756;2023-10-19T12:55:55;9.65;;;4.00;;
37453;SDS011;23315;52.078;4.756;2023-10-19T12:58:20;7.47;;;3.03;;
37453;SDS011;23315;52.078;4.756;2023-10-19T13:00:46;12.77;;;3.75;;
37453;SDS011;23315;52.078;4.756;2023-10-19T13:03:14;10.10;;;3.47;;
37453;SDS011;23315;52.078;4.756;2023-10-19T13:05:43;9.45;;;3.45;;
37453;SDS011;23315;52.078;4.756;2023-10-19T13:08:12;16.48;;;5.20;;
37453;SDS011;23315;52.078;4.756;2023-10-19T13:10:39;11.18;;;3.65;;
37453;SDS011;23315;52.078;4.756;2023-10-19T13:13:07;12.20;;;3.83;;
37453;SDS011;23315;52.078;4.756;2023-10-19T13:15:37;17.67;;;4.10;;
37453;SDS011;23315;52.078;4.756;2023-10-19T13:18:03;16.13;;;3.88;;
37453;SDS011;23315;52.078;4.756;2023-10-19T13:20:31;11.77;;;3.85;;
37453;SDS011;23315;52.078;4.756;2023-10-19T13:23:00;12.43;;;3.63;;
37453;SDS011;23315;52.078;4.756;2023-10-19T13:25:28;15.90;;;4.43;;
37453;SDS011;23315;52.078;4.756;2023-10-19T13:28:12;14.38;;;3.83;;
37453;SDS011;23315;52.078;4.756;2023-10-19T13:30:38;10.75;;;3.30;;
37453;SDS011;23315;52.078;4.756;2023-10-19T13:33:04;13.02;;;3.58;;
37453;SDS011;23315;52.078;4.756;2023-10-19T13:35:31;7.82;;;3.58;;
37453;SDS011;23315;52.078;4.756;2023-10-19T13:37:57;14.90;;;4.15;;
37453;SDS011;23315;52.078;4.756;2023-10-19T13:40:22;14.48;;;3.63;;
37453;SDS011;23315;52.078;4.756;2023-10-19T13:42:48;10.73;;;4.45;;
37453;SDS011;23315;52.078;4.756;2023-10-19T13:45:14;10.63;;;3.63;;
37453;SDS011;23315;52.078;4.756;2023-10-19T13:47:39;17.38;;;6.05;;
37453;SDS011;23315;52.078;4.756;2023-10-19T13:50:05;13.27;;;4.65;;
37453;SDS011;23315;52.078;4.756;2023-10-19T13:52:32;16.77;;;4.10;;
37453;SDS011;23315;52.078;4.756;2023-10-19T13:54:59;27.30;;;18.02;;
37453;SDS011;23315;52.078;4.756;2023-10-19T13:57:24;22.30;;;11.85;;
37453;SDS011;23315;52.078;4.756;2023-10-19T13:59:50;15.82;;;6.15;;
37453;SDS011;23315;52.078;4.756;2023-10-19T14:02:15;11.57;;;4.75;;
37453;SDS011;23315;52.078;4.756;2023-10-19T14:04:41;14.27;;;5.30;;
37453;SDS011;23315;52.078;4.756;2023-10-19T14:07:06;12.52;;;5.28;;
37453;SDS011;23315;52.078;4.756;2023-10-19T14:09:31;9.98;;;4.35;;
37453;SDS011;23315;52.078;4.756;2023-10-19T14:11:57;18.90;;;4.95;;
37453;SDS011;23315;52.078;4.756;2023-10-19T14:14:22;15.45;;;6.05;;
37453;SDS011;23315;52.078;4.756;2023-10-19T14:16:48;12.63;;;4.90;;
37453;SDS011;23315;52.078;4.756;2023-10-19T14:19:15;15.27;;;6.70;;
37453;SDS011;23315;52.078;4.756;2023-10-19T14:21:42;12.10;;;5.47;;
37453;SDS011;23315;52.078;4.756;2023-10-19T14:24:09;13.30;;;6.45;;
37453;SDS011;23315;52.078;4.756;2023-10-19T14:26:35;11.95;;;5.97;;
37453;SDS011;23315;52.078;4.756;2023-10-19T14:29:00;16.95;;;6.25;;
37453;SDS011;23315;52.078;4.756;2023-10-19T14:31:26;12.00;;;6.10;;
37453;SDS011;23315;52.078;4.756;2023-10-19T14:33:51;16.92;;;6.20;;
37453;SDS011;23315;52.078;4.756;2023-10-19T14:36:17;15.57;;;6.28;;
37453;SDS011;23315;52.078;4.756;2023-10-19T14:38:43;16.83;;;7.63;;
37453;SDS011;23315;52.078;4.756;2023-10-19T14:41:11;14.27;;;7.15;;
37453;SDS011;23315;52.078;4.756;2023-10-19T14:43:36;15.02;;;6.20;;
37453;SDS011;23315;52.078;4.756;2023-10-19T14:46:04;20.35;;;6.53;;
37453;SDS011;23315;52.078;4.756;2023-10-19T14:48:31;12.15;;;5.80;;